McAlester, OK (74501)

8:48 PM CST on February 06, 2016 (GMT -0600)
South McAlester | | Change Station
CLOSE
Current Station
Personal Weather Station
Location: McAlester, OK
Elevation: 751 ft
Nearby Weather Stations

Elev 751 ft 34.92 °N, 95.75 °W | Updated 35 seconds ago

Clear
Clear
39.2 °F
Feels Like 39 °F
N
1.1
Wind Variable Wind from SSE

Today
High -- | Low -- °F
--% Chance of Precip.
Yesterday
High -- | Low -- °F
Precip. -- in
Pressure 30.32 in
Visibility 10.0 miles
Clouds Few 7000 ft
Few 9000 ft
Windchill 39 °F
Dew Point 32 °F
Humidity 76%
Rainfall 0.00 in
Snow Depth Not available.
7:18 AM 5:56 PM
Waning Crescent, 3% visible
METAR KMLC 070153Z AUTO 00000KT 10SM FEW070 FEW090 03/M02 A3030 RMK AO2 SLP265 T00331017 $
Pressure 30.32 in
Visibility 10.0 miles
Clouds Few 7000 ft
Few 9000 ft
Windchill 39 °F
Dew Point 32 °F
Humidity 76%
Rainfall 0.00 in
Snow Depth Not available.
7:18 AM 5:56 PM
Waning Crescent, 3% visible
METAR KMLC 070153Z AUTO 00000KT 10SM FEW070 FEW090 03/M02 A3030 RMK AO2 SLP265 T00331017 $

10-Day Weather Forecast

Almanac

Astronomy

Feb. 06, 2016 Rise Set
Actual Time
Civil Twilight
Nautical Twilight
Astronomical Twilight
Moon
Length of Visible Light
Length of Day
Tomorrow will be .
, % of the Moon is Illuminated

Today's Extremes

State Highs State Lows

Community

WunderPhotos

Upload Photos

1,891,143 photos uploaded!

WunderBlog® & News

Nearby

Air Quality

  Air Quality AQ Index Pollutant
Not available.

Snow Depth

Station Depth Elevation

Earthquake Activity

City Distance Mag. Time & Date
Minimum magnitude displayed is 2.5.

Coastal Water Temperatures

Place Temperature

Stations

Nearby Weather Stations

Station Location Temp. Windchill Dew Point Humidity Wind Precip. Elev Updated Type
                   

Watches & Warnings

There are currently no watches in effect.